Time;durP1;ratioP1;P1;durP2;ratioP2;P2;SDS_P1;SDS_P2;PMS_P1;PMS_P2;Temp;Humidity;BMP_temperature;BMP_pressure;BME280_temperature;BME280_humidity;BME280_pressure;Samples;Min_cycle;Max_cycle;Signal;HPM_P1;HPM_P2
2024/03/08 00:01:27;;;;;;;6.00;4.78;;;9.00;99.90;;;;;;4983191;28;20220;-75
2024/03/08 00:03:55;;;;;;;5.63;5.07;;;9.00;99.90;;;;;;5002362;28;20208;-76
2024/03/08 00:06:22;;;;;;;4.57;4.18;;;9.00;99.90;;;;;;4983286;28;20228;-75
2024/03/08 00:08:50;;;;;;;5.63;5.10;;;9.00;99.90;;;;;;4982662;28;20888;-77
2024/03/08 00:11:18;;;;;;;5.20;4.80;;;8.90;99.90;;;;;;4997811;28;20298;-75
2024/03/08 00:13:47;;;;;;;5.28;4.78;;;8.90;99.90;;;;;;4981077;28;20216;-74
2024/03/08 00:16:14;;;;;;;5.28;4.78;;;8.90;99.90;;;;;;4978663;28;20247;-75
2024/03/08 00:18:42;;;;;;;5.57;5.07;;;8.90;99.90;;;;;;4979738;28;20256;-75
2024/03/08 00:21:10;;;;;;;5.38;4.88;;;8.70;99.90;;;;;;4979456;28;20291;-75
2024/03/08 00:23:37;;;;;;;5.47;4.97;;;8.60;99.90;;;;;;4987940;28;20205;-76
2024/03/08 00:26:05;;;;;;;4.63;4.22;;;8.50;99.90;;;;;;4984448;28;20795;-76
2024/03/08 00:28:32;;;;;;;4.60;4.28;;;8.50;99.90;;;;;;5005372;28;20211;-76
2024/03/08 00:30:59;;;;;;;4.13;3.83;;;8.50;99.90;;;;;;5000791;28;20251;-77
2024/03/08 00:33:27;;;;;;;4.40;4.00;;;8.60;99.90;;;;;;4983214;28;20296;-75
2024/03/08 00:35:56;;;;;;;4.65;4.13;;;8.70;99.90;;;;;;4991984;28;24120;-75
2024/03/08 00:38:23;;;;;;;6.45;5.82;;;8.70;99.90;;;;;;5004288;28;20220;-76
2024/03/08 00:40:50;;;;;;;4.95;4.53;;;8.70;99.90;;;;;;5005863;28;20322;-75
2024/03/08 00:43:17;;;;;;;5.40;4.85;;;8.60;99.90;;;;;;4999550;28;20301;-75
2024/03/08 00:45:44;;;;;;;6.20;5.28;;;8.50;99.90;;;;;;4986716;28;20573;-75
2024/03/08 00:48:12;;;;;;;6.22;5.63;;;8.40;99.90;;;;;;4986779;28;20222;-75
2024/03/08 00:50:39;;;;;;;6.15;5.55;;;8.40;99.90;;;;;;5004125;28;20697;-75
2024/03/08 00:53:07;;;;;;;5.25;4.75;;;8.30;99.90;;;;;;4985613;28;21068;-75
2024/03/08 00:55:34;;;;;;;5.10;4.60;;;8.30;99.90;;;;;;5006395;28;20201;-76
2024/03/08 00:58:02;;;;;;;4.72;4.32;;;8.30;99.90;;;;;;5002473;28;20303;-76
2024/03/08 01:00:29;;;;;;;4.47;4.07;;;8.40;99.90;;;;;;5004195;28;21096;-77
2024/03/08 01:02:57;;;;;;;4.90;4.50;;;8.40;99.90;;;;;;5005932;28;20693;-76
2024/03/08 01:05:25;;;;;;;4.88;4.40;;;8.50;99.90;;;;;;5006442;28;20207;-76
2024/03/08 01:07:52;;;;;;;4.22;3.90;;;8.50;99.90;;;;;;4987990;28;20224;-77
2024/03/08 01:10:21;;;;;;;4.45;4.05;;;8.60;99.90;;;;;;5002981;28;20244;-76
2024/03/08 01:12:49;;;;;;;5.00;4.50;;;8.60;99.90;;;;;;4988613;28;20769;-77
2024/03/08 01:15:16;;;;;;;5.10;4.57;;;8.60;99.90;;;;;;4967947;28;20203;-76
2024/03/08 01:17:44;;;;;;;3.80;3.50;;;8.60;99.90;;;;;;4964539;28;20795;-76
2024/03/08 01:20:12;;;;;;;4.63;4.22;;;8.60;99.90;;;;;;4967622;28;20217;-76
2024/03/08 01:22:39;;;;;;;4.40;4.10;;;8.60;99.90;;;;;;4982157;28;20275;-75
2024/03/08 01:25:08;;;;;;;4.38;4.00;;;8.60;99.90;;;;;;4985977;28;20204;-74
2024/03/08 01:27:36;;;;;;;4.22;3.92;;;8.60;99.90;;;;;;4982906;28;20224;-75
2024/03/08 01:30:04;;;;;;;4.38;4.00;;;8.60;99.90;;;;;;4984046;28;20268;-75
2024/03/08 01:32:32;;;;;;;5.00;4.50;;;8.60;99.90;;;;;;4983727;28;20221;-76
2024/03/08 01:35:00;;;;;;;5.85;5.13;;;8.50;99.90;;;;;;4987688;28;20242;-75
2024/03/08 01:37:28;;;;;;;5.80;5.30;;;8.40;99.90;;;;;;4984320;28;20217;-75
2024/03/08 01:39:55;;;;;;;5.32;4.82;;;8.40;99.90;;;;;;4980758;28;20236;-76
2024/03/08 01:42:22;;;;;;;5.72;5.22;;;8.30;99.90;;;;;;4984716;28;20240;-76
2024/03/08 01:44:51;;;;;;;5.28;4.85;;;8.30;99.90;;;;;;4981883;28;20841;-76
2024/03/08 01:47:20;;;;;;;5.50;5.10;;;8.40;99.90;;;;;;4987593;28;20223;-76
2024/03/08 01:49:47;;;;;;;5.80;5.30;;;8.30;99.90;;;;;;4988508;28;20221;-76
2024/03/08 01:52:14;;;;;;;4.97;4.57;;;8.20;99.90;;;;;;4983118;28;20252;-75
2024/03/08 01:54:42;;;;;;;5.63;5.13;;;8.30;99.90;;;;;;4981543;28;20814;-75
2024/03/08 01:57:09;;;;;;;5.80;4.43;;;8.30;99.90;;;;;;4986185;28;20240;-75
2024/03/08 01:59:36;;;;;;;5.88;5.32;;;8.30;99.90;;;;;;4981751;28;20223;-76
2024/03/08 02:02:06;;;;;;;4.75;4.35;;;8.30;99.90;;;;;;4980715;28;20249;-76
2024/03/08 02:04:33;;;;;;;5.68;5.18;;;8.30;99.90;;;;;;4983391;28;20236;-76
2024/03/08 02:07:01;;;;;;;5.22;4.82;;;8.30;99.90;;;;;;4982447;28;20308;-76
2024/03/08 02:09:29;;;;;;;6.00;5.50;;;8.10;99.90;;;;;;4981402;28;20703;-75
2024/03/08 02:11:57;;;;;;;6.25;5.72;;;8.00;99.90;;;;;;4983653;28;20874;-76
2024/03/08 02:14:24;;;;;;;5.97;5.47;;;7.90;99.90;;;;;;4986232;28;20722;-76
2024/03/08 02:16:52;;;;;;;6.43;5.82;;;7.70;99.90;;;;;;4996273;28;20221;-75
2024/03/08 02:19:20;;;;;;;5.95;5.38;;;7.50;99.90;;;;;;5004088;28;20220;-75
2024/03/08 02:21:52;;;;;;;5.20;4.80;;;7.40;99.90;;;;;;4991349;28;20754;-75
2024/03/08 02:24:19;;;;;;;5.10;4.70;;;7.30;99.90;;;;;;4985241;28;20295;-75
2024/03/08 02:26:46;;;;;;;5.47;4.97;;;7.40;99.90;;;;;;4985927;28;20284;-75
2024/03/08 02:29:14;;;;;;;5.78;5.28;;;7.50;99.90;;;;;;4983044;28;20295;-75
2024/03/08 02:31:41;;;;;;;5.75;5.25;;;7.40;99.90;;;;;;4983838;28;20271;-75
2024/03/08 02:34:09;;;;;;;6.50;5.97;;;7.30;99.90;;;;;;4984007;28;20299;-75
2024/03/08 02:36:36;;;;;;;5.60;5.10;;;7.30;99.90;;;;;;4986626;28;20383;-75
2024/03/08 02:39:06;;;;;;;4.50;4.20;;;7.20;99.90;;;;;;4989484;28;20224;-75
2024/03/08 02:41:33;;;;;;;4.55;4.20;;;7.20;99.90;;;;;;5001640;28;20274;-75
2024/03/08 02:44:00;;;;;;;4.38;4.07;;;7.30;99.90;;;;;;4987285;28;20287;-77
2024/03/08 02:46:28;;;;;;;4.78;4.47;;;7.30;99.90;;;;;;4999436;28;20220;-76
2024/03/08 02:48:55;;;;;;;4.30;3.95;;;7.30;99.90;;;;;;5001050;28;20279;-75
2024/03/08 02:51:22;;;;;;;3.50;3.30;;;7.40;99.90;;;;;;5000551;28;20251;-75
2024/03/08 02:53:51;;;;;;;4.20;3.90;;;7.40;99.90;;;;;;5002824;28;20306;-75
2024/03/08 02:56:21;;;;;;;4.25;3.95;;;7.50;99.90;;;;;;4985957;28;20234;-75
2024/03/08 02:58:49;;;;;;;4.45;4.15;;;7.60;99.90;;;;;;5004804;28;20204;-75
2024/03/08 03:01:16;;;;;;;4.00;3.70;;;7.60;99.90;;;;;;4984395;28;20221;-75
2024/03/08 03:03:43;;;;;;;4.47;4.15;;;7.60;99.90;;;;;;4983141;28;20197;-76
2024/03/08 03:06:11;;;;;;;3.78;3.58;;;7.60;99.90;;;;;;4983016;28;20248;-75
2024/03/08 03:08:38;;;;;;;4.18;3.83;;;7.60;99.90;;;;;;5001557;28;20200;-75
2024/03/08 03:11:05;;;;;;;4.15;3.85;;;7.60;99.90;;;;;;4983647;28;20232;-74
2024/03/08 03:13:34;;;;;;;5.18;4.78;;;7.60;99.90;;;;;;4999468;28;20240;-75
2024/03/08 03:16:03;;;;;;;4.55;4.18;;;7.50;99.90;;;;;;4982550;28;20643;-75
2024/03/08 03:18:32;;;;;;;4.43;4.13;;;7.50;99.90;;;;;;5001483;28;20693;-75
2024/03/08 03:21:02;;;;;;;4.45;4.05;;;7.40;99.90;;;;;;4999269;28;20232;-75
2024/03/08 03:23:33;;;;;;;4.20;3.90;;;7.30;99.90;;;;;;5001443;28;21221;-75
2024/03/08 03:26:00;;;;;;;4.43;4.13;;;7.40;99.90;;;;;;5002275;28;20224;-75
2024/03/08 03:28:28;;;;;;;4.03;3.72;;;7.40;99.90;;;;;;5002384;28;20693;-75
2024/03/08 03:30:58;;;;;;;4.45;4.10;;;7.50;99.90;;;;;;5003474;28;20235;-75
2024/03/08 03:33:25;;;;;;;4.47;4.07;;;7.50;99.90;;;;;;5007715;28;20267;-75
2024/03/08 03:35:53;;;;;;;4.38;4.07;;;7.50;99.90;;;;;;4983441;28;20200;-76
2024/03/08 03:38:23;;;;;;;4.18;3.78;;;7.60;99.90;;;;;;4977971;28;20291;-75
2024/03/08 03:40:52;;;;;;;3.92;3.63;;;7.60;99.90;;;;;;4950304;28;20213;-75
2024/03/08 03:43:19;;;;;;;4.20;3.90;;;7.60;99.90;;;;;;4983003;28;20223;-75
2024/03/08 03:45:46;;;;;;;4.15;3.85;;;7.70;99.90;;;;;;5000694;28;20269;-75
2024/03/08 03:48:15;;;;;;;4.15;3.85;;;7.70;99.90;;;;;;4998936;28;20270;-74
2024/03/08 03:50:42;;;;;;;4.95;4.55;;;7.70;99.90;;;;;;5003056;28;20228;-74
2024/03/08 03:53:09;;;;;;;4.20;3.90;;;7.70;99.90;;;;;;5002691;28;20243;-75
2024/03/08 03:55:36;;;;;;;4.20;3.85;;;7.70;99.90;;;;;;5000986;28;20243;-75
2024/03/08 03:58:04;;;;;;;4.03;3.72;;;7.70;99.90;;;;;;5004738;28;20314;-75
2024/03/08 04:00:32;;;;;;;4.13;3.83;;;7.70;99.90;;;;;;5001921;28;20243;-75
2024/03/08 04:03:00;;;;;;;3.97;3.67;;;7.70;99.90;;;;;;4986433;28;20231;-75
2024/03/08 04:05:30;;;;;;;4.45;4.15;;;7.70;99.90;;;;;;4999935;28;20204;-76
2024/03/08 04:07:58;;;;;;;4.78;4.43;;;7.70;99.90;;;;;;5002889;28;20315;-75
2024/03/08 04:10:25;;;;;;;4.90;4.50;;;7.60;99.90;;;;;;4999067;28;20228;-74
2024/03/08 04:12:52;;;;;;;4.60;4.20;;;7.60;99.90;;;;;;4996366;28;20306;-74
2024/03/08 04:15:19;;;;;;;4.03;3.72;;;7.60;99.90;;;;;;5005531;28;20204;-75
2024/03/08 04:17:46;;;;;;;4.38;3.97;;;7.60;99.90;;;;;;4983826;28;20223;-74
2024/03/08 04:20:14;;;;;;;3.45;3.25;;;7.50;99.90;;;;;;5000687;28;20251;-75
2024/03/08 04:22:44;;;;;;;3.42;3.22;;;7.50;99.90;;;;;;4983386;28;20251;-75
2024/03/08 04:25:11;;;;;;;3.72;3.53;;;7.50;99.90;;;;;;5003331;28;20675;-75
2024/03/08 04:27:38;;;;;;;4.45;4.10;;;7.50;99.90;;;;;;5003169;28;20278;-75
2024/03/08 04:30:07;;;;;;;4.00;3.70;;;7.50;99.90;;;;;;5001650;28;20315;-74
2024/03/08 04:32:34;;;;;;;4.85;4.35;;;7.50;99.90;;;;;;5002075;28;20581;-74
2024/03/08 04:35:03;;;;;;;4.57;4.18;;;7.40;99.90;;;;;;5004335;28;20323;-76
2024/03/08 04:37:30;;;;;;;4.95;4.45;;;7.30;99.90;;;;;;5003657;28;20219;-76
2024/03/08 04:39:59;;;;;;;4.45;4.15;;;7.30;99.90;;;;;;4988024;28;20698;-75
2024/03/08 04:42:28;;;;;;;4.28;3.97;;;7.20;99.90;;;;;;4981025;28;20220;-75
2024/03/08 04:44:55;;;;;;;4.38;4.07;;;7.20;99.90;;;;;;4986552;28;20281;-75
2024/03/08 04:47:23;;;;;;;4.18;3.83;;;7.30;99.90;;;;;;5001286;28;20256;-75
2024/03/08 04:49:50;;;;;;;3.88;3.67;;;7.30;99.90;;;;;;5001110;28;20768;-75
2024/03/08 04:52:17;;;;;;;3.25;3.05;;;7.30;99.90;;;;;;4996383;28;20230;-75
2024/03/08 04:54:44;;;;;;;3.90;3.42;;;7.30;99.90;;;;;;4999467;28;20197;-75
2024/03/08 04:57:13;;;;;;;3.08;2.88;;;7.30;99.90;;;;;;5000786;28;20949;-75
2024/03/08 04:59:40;;;;;;;2.67;2.55;;;7.20;99.90;;;;;;5002754;28;20325;-75
2024/03/08 05:02:08;;;;;;;2.97;2.78;;;7.20;99.90;;;;;;4996898;28;20228;-75
2024/03/08 05:04:35;;;;;;;3.30;3.10;;;7.20;99.90;;;;;;5001475;28;20231;-75
2024/03/08 05:07:03;;;;;;;3.85;3.55;;;7.20;99.90;;;;;;4997331;28;20967;-75
2024/03/08 05:09:31;;;;;;;3.50;3.20;;;7.20;99.90;;;;;;5002639;28;20323;-74
2024/03/08 05:11:59;;;;;;;3.72;3.47;;;7.20;99.90;;;;;;4997353;28;20229;-75
2024/03/08 05:14:28;;;;;;;3.40;3.20;;;7.20;99.90;;;;;;5005107;28;20219;-75
2024/03/08 05:16:56;;;;;;;3.83;3.53;;;7.10;99.90;;;;;;5003669;28;20223;-75
2024/03/08 05:19:23;;;;;;;4.00;3.80;;;7.10;99.90;;;;;;4999776;28;20243;-75
2024/03/08 05:21:51;;;;;;;4.10;3.70;;;7.10;99.90;;;;;;5003403;28;20389;-75
2024/03/08 05:24:19;;;;;;;4.10;3.80;;;7.10;99.90;;;;;;5001470;28;20232;-75
2024/03/08 05:26:47;;;;;;;5.00;4.60;;;7.10;99.90;;;;;;5005577;28;20301;-75
2024/03/08 05:29:14;;;;;;;5.53;5.03;;;7.10;99.90;;;;;;5005427;28;20303;-75
2024/03/08 05:31:49;;;;;;;5.20;4.80;;;7.10;99.90;;;;;;5001376;28;20845;-75
2024/03/08 05:34:16;;;;;;;4.85;4.45;;;7.00;99.90;;;;;;5006026;28;20207;-76
2024/03/08 05:36:44;;;;;;;4.93;4.53;;;6.90;99.90;;;;;;5000540;28;20713;-76
2024/03/08 05:39:11;;;;;;;4.82;4.47;;;7.00;99.90;;;;;;5003146;28;20228;-75
2024/03/08 05:41:39;;;;;;;5.82;5.32;;;7.00;99.90;;;;;;4985919;28;20224;-76
2024/03/08 05:44:06;;;;;;;5.05;4.65;;;7.00;99.90;;;;;;5001315;28;20873;-76
2024/03/08 05:46:33;;;;;;;5.43;5.03;;;7.10;99.90;;;;;;4986555;28;20228;-75
2024/03/08 05:49:05;;;;;;;5.50;4.90;;;7.00;99.90;;;;;;5004409;28;20267;-76
2024/03/08 05:51:34;;;;;;;5.43;5.03;;;7.00;99.90;;;;;;5002169;28;20234;-76
2024/03/08 05:54:02;;;;;;;4.80;4.40;;;6.90;99.90;;;;;;5002391;28;20212;-75
2024/03/08 05:56:30;;;;;;;5.40;4.90;;;6.90;99.90;;;;;;5005966;28;20228;-75
2024/03/08 05:58:57;;;;;;;5.88;5.38;;;6.90;99.90;;;;;;5003034;28;20224;-75
2024/03/08 06:01:26;;;;;;;5.75;5.13;;;6.90;99.90;;;;;;5000603;28;20995;-75
2024/03/08 06:03:55;;;;;;;5.53;5.13;;;7.00;99.90;;;;;;5001212;28;20255;-75
2024/03/08 06:06:26;;;;;;;5.00;4.60;;;7.00;99.90;;;;;;4999926;28;20242;-75
2024/03/08 06:08:56;;;;;;;5.43;4.93;;;7.00;99.90;;;;;;4988180;28;20219;-76
2024/03/08 06:11:23;;;;;;;5.38;4.93;;;7.00;99.90;;;;;;5003256;28;21286;-75
2024/03/08 06:13:50;;;;;;;6.38;5.80;;;7.10;99.90;;;;;;5002113;28;20266;-75
2024/03/08 06:16:18;;;;;;;6.13;5.60;;;7.10;99.90;;;;;;4983820;28;20670;-75
2024/03/08 06:18:46;;;;;;;5.38;4.88;;;7.10;99.90;;;;;;5002666;28;20266;-76
2024/03/08 06:21:13;;;;;;;5.75;5.25;;;7.10;99.90;;;;;;4999738;28;20673;-75
2024/03/08 06:23:42;;;;;;;5.90;5.40;;;7.00;99.90;;;;;;4987454;28;20231;-74
2024/03/08 06:26:09;;;;;;;5.60;5.10;;;7.00;99.90;;;;;;4995021;28;20323;-75
2024/03/08 06:28:36;;;;;;;5.13;4.72;;;7.00;99.90;;;;;;5007980;28;20622;-75
2024/03/08 06:31:04;;;;;;;5.88;5.38;;;7.00;99.90;;;;;;5000839;28;20244;-75
2024/03/08 06:33:32;;;;;;;5.22;4.82;;;7.00;99.90;;;;;;5003272;28;20204;-75
2024/03/08 06:36:00;;;;;;;5.72;5.22;;;7.00;99.90;;;;;;4982822;28;20219;-75
2024/03/08 06:38:30;;;;;;;6.35;5.82;;;7.10;99.90;;;;;;5003705;28;20266;-75
2024/03/08 06:40:59;;;;;;;5.60;5.10;;;7.10;99.90;;;;;;5000734;28;20743;-75
2024/03/08 06:43:32;;;;;;;5.50;5.00;;;7.10;99.90;;;;;;5020676;28;20232;-76
2024/03/08 06:46:00;;;;;;;5.80;5.30;;;7.10;99.90;;;;;;5003380;28;20230;-76
2024/03/08 06:48:27;;;;;;;5.00;4.60;;;7.10;99.90;;;;;;4989348;28;20807;-74
2024/03/08 06:50:56;;;;;;;5.32;4.82;;;7.10;99.90;;;;;;4967566;28;21501;-75
2024/03/08 06:53:24;;;;;;;5.70;5.15;;;7.10;99.90;;;;;;4984411;28;20698;-76
2024/03/08 06:55:51;;;;;;;5.50;5.00;;;7.10;99.90;;;;;;5003519;28;20227;-75
2024/03/08 06:58:20;;;;;;;5.85;5.35;;;7.30;99.90;;;;;;5003020;28;20216;-75
2024/03/08 07:00:51;;;;;;;5.75;5.25;;;7.30;99.90;;;;;;5006347;28;20283;-75
2024/03/08 07:03:22;;;;;;;5.93;5.43;;;7.30;99.90;;;;;;4999607;28;20220;-76
2024/03/08 07:05:49;;;;;;;5.15;4.75;;;7.30;99.90;;;;;;5000008;28;20219;-76
2024/03/08 07:08:16;;;;;;;5.32;4.82;;;7.40;99.90;;;;;;4994090;28;20293;-76
2024/03/08 07:10:45;;;;;;;5.13;4.72;;;7.40;99.90;;;;;;4999547;28;20360;-76
2024/03/08 07:13:12;;;;;;;5.20;4.80;;;7.40;99.90;;;;;;4980295;28;20286;-76
2024/03/08 07:15:40;;;;;;;5.40;4.93;;;7.30;99.90;;;;;;4983787;28;20464;-75
2024/03/08 07:18:14;;;;;;;5.03;4.63;;;7.30;99.90;;;;;;4995214;28;20291;-76
2024/03/08 07:20:42;;;;;;;5.25;4.75;;;7.20;99.90;;;;;;4982307;28;20228;-75
2024/03/08 07:23:10;;;;;;;5.78;5.28;;;7.10;99.90;;;;;;4997655;28;20929;-75
2024/03/08 07:25:39;;;;;;;4.82;4.40;;;7.10;99.90;;;;;;4984601;28;20744;-76
2024/03/08 07:28:07;;;;;;;5.38;4.97;;;7.10;99.90;;;;;;4965019;28;20244;-75
2024/03/08 07:31:01;;;;;;;5.25;4.82;;;7.10;99.90;;;;;;4962527;28;20232;-76
2024/03/08 07:33:30;;;;;;;4.90;4.50;;;7.10;99.90;;;;;;4978058;28;20232;-75
2024/03/08 07:35:57;;;;;;;6.00;5.50;;;7.10;99.90;;;;;;4980359;28;20227;-76
2024/03/08 07:38:24;;;;;;;5.90;5.40;;;7.10;99.90;;;;;;4978668;28;20243;-75
2024/03/08 07:40:52;;;;;;;5.45;4.95;;;7.10;99.90;;;;;;4979557;28;20223;-75
2024/03/08 07:43:19;;;;;;;5.45;4.95;;;7.10;99.90;;;;;;4976858;28;20229;-75
2024/03/08 07:45:46;;;;;;;5.85;5.35;;;7.40;99.90;;;;;;4984108;28;20224;-75
2024/03/08 07:48:14;;;;;;;5.20;4.80;;;7.70;99.90;;;;;;4987252;28;20779;-74
2024/03/08 07:50:43;;;;;;;5.13;4.70;;;7.90;99.90;;;;;;4998242;28;20232;-76
2024/03/08 07:53:11;;;;;;;6.00;4.80;;;7.80;99.90;;;;;;5003212;28;20232;-75
2024/03/08 07:55:39;;;;;;;4.60;4.20;;;7.70;99.90;;;;;;5012762;28;20176;-76
2024/03/08 07:58:07;;;;;;;5.80;5.18;;;7.60;99.90;;;;;;5017975;28;20249;-76
2024/03/08 08:00:37;;;;;;;5.22;4.72;;;7.50;99.90;;;;;;4995881;28;20225;-75
2024/03/08 08:03:04;;;;;;;5.80;5.32;;;7.50;99.90;;;;;;4999271;28;20273;-75
2024/03/08 08:05:35;;;;;;;6.22;5.30;;;7.50;99.90;;;;;;4981188;28;20332;-75
2024/03/08 08:08:06;;;;;;;6.55;5.15;;;7.40;99.90;;;;;;5000061;28;20223;-75
2024/03/08 08:10:33;;;;;;;5.18;4.68;;;7.40;99.90;;;;;;5001036;28;20293;-76
2024/03/08 08:13:01;;;;;;;5.03;4.63;;;7.40;99.90;;;;;;4979871;28;20829;-76
2024/03/08 08:15:29;;;;;;;5.00;4.50;;;7.40;99.90;;;;;;4979833;28;20204;-75
2024/03/08 08:17:56;;;;;;;5.15;4.65;;;7.40;99.90;;;;;;4999784;28;20262;-75
2024/03/08 08:20:26;;;;;;;4.85;4.45;;;7.30;99.90;;;;;;4993771;28;20252;-77
2024/03/08 08:22:55;;;;;;;5.80;4.63;;;7.60;99.90;;;;;;5000305;28;20268;-75
2024/03/08 08:25:24;;;;;;;5.30;4.90;;;8.00;99.90;;;;;;4995288;28;20208;-75
2024/03/08 08:27:53;;;;;;;5.93;4.80;;;8.20;99.90;;;;;;4997222;28;20285;-77
2024/03/08 08:30:20;;;;;;;4.00;3.70;;;8.50;99.90;;;;;;4997718;28;20301;-75
2024/03/08 08:32:48;;;;;;;4.97;4.57;;;8.50;99.90;;;;;;4999833;28;20220;-77
2024/03/08 08:35:16;;;;;;;4.60;4.25;;;8.40;99.90;;;;;;4993125;28;20201;-76
2024/03/08 08:37:44;;;;;;;5.30;4.80;;;8.20;99.90;;;;;;4997463;28;20388;-76
2024/03/08 08:40:14;;;;;;;4.57;4.28;;;8.00;99.90;;;;;;4994455;28;20271;-76
2024/03/08 08:42:43;;;;;;;4.70;4.20;;;7.90;99.90;;;;;;4980226;28;20224;-76
2024/03/08 08:45:11;;;;;;;4.20;3.80;;;7.90;99.90;;;;;;4976402;28;20839;-75
2024/03/08 08:47:39;;;;;;;5.15;4.75;;;7.90;99.90;;;;;;4996721;28;20224;-76
2024/03/08 08:50:07;;;;;;;5.25;4.68;;;7.90;99.90;;;;;;4999973;28;20222;-77
2024/03/08 08:52:35;;;;;;;4.95;4.53;;;7.90;99.90;;;;;;4998450;28;20244;-78
2024/03/08 08:55:03;;;;;;;4.55;4.10;;;7.80;99.90;;;;;;5001811;28;20209;-77
2024/03/08 08:57:32;;;;;;;4.85;4.45;;;7.80;99.90;;;;;;4973691;28;20224;-77
2024/03/08 09:00:01;;;;;;;5.00;4.60;;;7.80;99.90;;;;;;4966254;28;20233;-77
2024/03/08 09:02:30;;;;;;;5.22;4.72;;;7.70;99.90;;;;;;4997481;28;20224;-76
2024/03/08 09:04:57;;;;;;;4.82;4.43;;;7.70;99.90;;;;;;5003741;28;20211;-77
2024/03/08 09:07:24;;;;;;;4.38;4.03;;;7.60;99.90;;;;;;5001491;28;20290;-77
2024/03/08 09:09:56;;;;;;;4.85;4.43;;;7.70;99.90;;;;;;5010493;28;20481;-77
2024/03/08 09:12:23;;;;;;;4.72;4.32;;;7.80;99.90;;;;;;4979880;28;20291;-76
2024/03/08 09:14:50;;;;;;;4.78;4.28;;;7.90;99.90;;;;;;4981132;28;20286;-75
2024/03/08 09:17:20;;;;;;;6.45;5.15;;;7.90;99.90;;;;;;4965499;28;20217;-75
2024/03/08 09:19:47;;;;;;;4.88;4.47;;;8.00;99.90;;;;;;4981470;28;20227;-75
2024/03/08 09:22:14;;;;;;;5.80;5.18;;;8.00;99.90;;;;;;4978781;28;20338;-73
2024/03/08 09:24:43;;;;;;;6.10;5.32;;;7.90;99.90;;;;;;4981066;28;20229;-76
2024/03/08 09:27:10;;;;;;;3.95;3.65;;;8.00;99.90;;;;;;4980565;28;20224;-75
2024/03/08 09:29:37;;;;;;;5.28;4.82;;;7.90;99.90;;;;;;4967024;28;20224;-74
2024/03/08 09:32:04;;;;;;;3.75;3.45;;;7.90;99.90;;;;;;4977385;28;20310;-75
2024/03/08 09:34:33;;;;;;;4.55;4.18;;;7.90;99.90;;;;;;4979661;28;20735;-74
2024/03/08 09:37:00;;;;;;;4.68;4.28;;;7.80;99.90;;;;;;4974061;28;20562;-74
2024/03/08 09:39:27;;;;;;;4.70;4.30;;;7.80;99.90;;;;;;5001048;28;20275;-74
2024/03/08 09:41:55;;;;;;;5.15;4.75;;;7.70;99.90;;;;;;4966134;28;20229;-75
2024/03/08 09:44:22;;;;;;;4.63;4.22;;;7.60;99.90;;;;;;4983198;28;20208;-74
2024/03/08 09:46:51;;;;;;;5.20;4.80;;;7.50;99.90;;;;;;4983835;28;21890;-76
2024/03/08 09:49:18;;;;;;;4.60;4.22;;;7.50;99.90;;;;;;5002142;28;20231;-75
2024/03/08 09:51:47;;;;;;;4.65;4.25;;;7.50;99.90;;;;;;4995261;28;20298;-75
2024/03/08 09:54:14;;;;;;;6.28;4.35;;;7.60;99.90;;;;;;5003730;28;20227;-74
2024/03/08 09:56:44;;;;;;;4.90;4.50;;;7.60;99.90;;;;;;4985278;28;20298;-74
2024/03/08 09:59:40;;;;;;;4.30;4.00;;;7.70;99.90;;;;;;4987525;28;20800;-74
2024/03/08 10:02:14;;;;;;;4.30;4.00;;;7.80;99.90;;;;;;4997960;28;20212;-74
2024/03/08 10:04:42;;;;;;;5.35;4.80;;;7.80;99.90;;;;;;5001564;28;20262;-74
2024/03/08 10:07:12;;;;;;;5.03;4.63;;;7.80;99.90;;;;;;5001900;28;20252;-74
2024/03/08 10:09:39;;;;;;;5.32;4.90;;;7.80;99.90;;;;;;4986664;28;20598;-75
2024/03/08 10:12:08;;;;;;;5.03;4.60;;;7.70;99.90;;;;;;4998522;28;20216;-76
2024/03/08 10:14:35;;;;;;;5.45;4.95;;;7.60;99.90;;;;;;5002669;28;20298;-75
2024/03/08 10:17:05;;;;;;;5.00;4.60;;;7.60;99.90;;;;;;4981444;28;20216;-75
2024/03/08 10:19:32;;;;;;;5.50;5.00;;;7.60;99.90;;;;;;5001940;28;20228;-75
2024/03/08 10:21:59;;;;;;;5.40;4.93;;;7.70;99.90;;;;;;4999145;28;20305;-75
2024/03/08 10:24:28;;;;;;;5.85;5.25;;;7.80;99.90;;;;;;5023410;28;21430;-77
2024/03/08 10:27:00;;;;;;;4.43;4.03;;;7.90;99.90;;;;;;5000813;28;20986;-75
2024/03/08 10:29:28;;;;;;;5.85;5.35;;;8.00;99.90;;;;;;5002049;28;20222;-75
2024/03/08 10:31:57;;;;;;;6.10;5.60;;;8.10;99.90;;;;;;4982397;28;20274;-75
2024/03/08 10:34:24;;;;;;;5.07;4.57;;;8.10;99.90;;;;;;5005039;28;20232;-75
2024/03/08 10:36:52;;;;;;;4.97;4.57;;;8.10;99.90;;;;;;4998033;28;20719;-75
2024/03/08 10:39:24;;;;;;;5.28;4.82;;;8.20;99.90;;;;;;4982990;28;21925;-78
2024/03/08 10:41:59;;;;;;;4.80;4.40;;;8.30;99.90;;;;;;4995775;28;20220;-77
2024/03/08 10:44:50;;;;;;;4.90;4.50;;;8.30;99.90;;;;;;5002087;28;20284;-77
2024/03/08 10:47:20;;;;;;;4.90;4.50;;;8.40;99.90;;;;;;5000114;28;20222;-77
2024/03/08 10:49:55;;;;;;;5.10;4.70;;;8.50;99.90;;;;;;4999174;28;20228;-77
2024/03/08 10:52:23;;;;;;;5.30;4.75;;;8.70;99.90;;;;;;5000620;28;20352;-77
2024/03/08 10:54:50;;;;;;;4.90;4.50;;;8.80;99.90;;;;;;4985507;28;20200;-76
2024/03/08 10:57:21;;;;;;;5.03;4.53;;;9.00;99.90;;;;;;4998288;28;20609;-77
2024/03/08 10:59:51;;;;;;;5.03;4.63;;;9.30;99.90;;;;;;4999761;28;20236;-77
2024/03/08 11:02:20;;;;;;;5.03;4.63;;;9.70;99.90;;;;;;4996331;28;20228;-77
2024/03/08 11:04:48;;;;;;;5.47;4.70;;;10.10;99.90;;;;;;4985393;28;20197;-78
2024/03/08 11:07:20;;;;;;;5.40;4.90;;;10.50;99.90;;;;;;4984489;28;20227;-76
2024/03/08 11:09:49;;;;;;;4.72;4.32;;;10.80;99.90;;;;;;5002209;28;20216;-76
2024/03/08 11:12:29;;;;;;;4.60;4.20;;;10.90;99.90;;;;;;4980045;28;20278;-76
2024/03/08 11:14:57;;;;;;;4.63;4.22;;;11.10;99.90;;;;;;4999635;28;20287;-76
2024/03/08 11:17:43;;;;;;;4.50;4.20;;;11.10;99.90;;;;;;4982907;28;20232;-76
2024/03/08 11:20:15;;;;;;;4.13;3.72;;;11.20;99.90;;;;;;4998069;28;20733;-76
2024/03/08 11:22:48;;;;;;;4.85;4.43;;;11.20;99.90;;;;;;4998142;28;21242;-75
2024/03/08 11:25:36;;;;;;;6.30;4.57;;;11.40;99.90;;;;;;4979153;28;20264;-75
2024/03/08 11:28:17;;;;;;;4.68;4.28;;;11.60;99.90;;;;;;5000106;28;20216;-75
2024/03/08 11:30:46;;;;;;;4.55;4.15;;;12.10;99.90;;;;;;4997567;28;20839;-75
2024/03/08 11:33:15;;;;;;;4.30;3.83;;;12.70;99.90;;;;;;5004808;28;20757;-74
2024/03/08 11:35:45;;;;;;;3.70;3.42;;;13.40;99.90;;;;;;5001885;28;20232;-75
2024/03/08 11:38:14;;;;;;;4.47;4.07;;;14.00;99.90;;;;;;5022641;28;20224;-75
2024/03/08 11:40:42;;;;;;;5.28;4.78;;;14.40;99.90;;;;;;4999129;28;20232;-75
2024/03/08 11:43:09;;;;;;;4.65;4.20;;;14.30;99.90;;;;;;5001215;28;20626;-76
2024/03/08 11:45:40;;;;;;;4.00;3.60;;;13.90;99.90;;;;;;4996817;28;20204;-74
2024/03/08 11:48:12;;;;;;;4.35;3.95;;;13.80;99.90;;;;;;4999329;28;20273;-74
2024/03/08 11:50:39;;;;;;;5.25;4.03;;;13.70;99.90;;;;;;5003636;28;20228;-74
2024/03/08 11:53:07;;;;;;;5.07;4.28;;;13.70;99.90;;;;;;4998819;28;20311;-74
2024/03/08 11:55:35;;;;;;;4.80;3.97;;;13.40;99.90;;;;;;4985054;28;20263;-74
2024/03/08 11:58:04;;;;;;;4.55;4.15;;;12.90;99.90;;;;;;4996944;28;20737;-74
2024/03/08 12:00:35;;;;;;;6.10;4.50;;;12.50;99.90;;;;;;4982633;28;20223;-74
2024/03/08 12:03:20;;;;;;;5.93;3.70;;;12.20;99.90;;;;;;4999462;28;20219;-74
2024/03/08 12:05:47;;;;;;;4.50;4.10;;;12.30;99.90;;;;;;5003259;28;20208;-74
2024/03/08 12:08:15;;;;;;;4.38;3.97;;;12.10;99.90;;;;;;4995422;28;20221;-74
2024/03/08 12:10:42;;;;;;;4.43;3.83;;;12.20;99.90;;;;;;5001883;28;20273;-74
2024/03/08 12:13:13;;;;;;;4.28;3.78;;;12.70;99.90;;;;;;4998472;28;20224;-73
2024/03/08 12:15:41;;;;;;;4.40;4.10;;;12.90;99.90;;;;;;4999407;28;20295;-74
2024/03/08 12:18:12;;;;;;;6.22;4.20;;;13.20;99.90;;;;;;4999522;28;20220;-74
2024/03/08 12:20:46;;;;;;;4.45;4.05;;;13.50;99.90;;;;;;5001283;28;20614;-73
2024/03/08 12:23:16;;;;;;;4.00;3.70;;;13.60;99.90;;;;;;4998021;28;20549;-73
2024/03/08 12:25:44;;;;;;;7.10;3.70;;;13.40;99.90;;;;;;5002862;28;20291;-74
2024/03/08 12:28:13;;;;;;;5.00;3.58;;;13.50;99.90;;;;;;4999961;28;20951;-73
2024/03/08 12:30:48;;;;;;;5.63;4.53;;;13.50;99.90;;;;;;5006691;28;20223;-72
2024/03/08 12:33:17;;;;;;;4.00;3.70;;;13.40;99.90;;;;;;5006686;28;20223;-74
2024/03/08 12:35:53;;;;;;;4.50;4.10;;;13.30;99.90;;;;;;4985690;28;20200;-72
2024/03/08 12:38:24;;;;;;;4.85;4.43;;;13.30;99.90;;;;;;5003098;28;21002;-73
2024/03/08 12:40:53;;;;;;;4.40;4.00;;;13.50;99.90;;;;;;5004742;28;20228;-72
2024/03/08 12:43:20;;;;;;;4.15;3.85;;;13.50;99.90;;;;;;4999309;28;20878;-74
2024/03/08 12:45:48;;;;;;;4.78;4.22;;;13.50;99.90;;;;;;5004528;28;20232;-75
2024/03/08 12:48:16;;;;;;;5.20;4.60;;;13.10;99.90;;;;;;5002070;28;20231;-73
2024/03/08 12:50:45;;;;;;;4.43;4.03;;;12.60;99.90;;;;;;5011778;28;20263;-75
2024/03/08 12:53:13;;;;;;;3.97;3.67;;;12.30;99.90;;;;;;5009183;28;20621;-75
2024/03/08 12:55:40;;;;;;;4.18;3.05;;;12.30;99.90;;;;;;5000060;28;20209;-74
2024/03/08 12:58:08;;;;;;;3.72;3.40;;;12.30;99.90;;;;;;4970649;28;20918;-75
2024/03/08 13:00:36;;;;;;;4.60;4.20;;;12.30;99.90;;;;;;5002397;28;20260;-74
2024/03/08 13:03:03;;;;;;;4.32;4.03;;;12.40;99.90;;;;;;4984056;28;20424;-74